< < Back
Terminal Aerodrome Forecast


Current Version              Previous Versions:   1  2  3  4  5  6  7  8  9  

Terminal Aerodrome Forecast

901
FTUS44 KOHX 301120
TAFCSV
TAF
KCSV 301120Z 3012/0112 36005KT P6SM SKC=

Latest METAR

284
SAUS70 KWBC 301700
MTRCSV
METAR KCSV 301653Z AUTO VRB04KT 10SM CLR 26/13 A3007 RMK AO2 SLP163
T02560128


USA.gov is the U.S. government's official web portal to all federal, state and local government web resources and services.